Time;durP1;ratioP1;P1;durP2;ratioP2;P2;SDS_P1;SDS_P2;PMS_P1;PMS_P2;Temp;Humidity;BMP_temperature;BMP_pressure;BME280_temperature;BME280_humidity;BME280_pressure;Samples;Min_cycle;Max_cycle;Signal;HPM_P1;HPM_P2
2022/08/10 00:05:39;;;;;;;8.25;2.83;;;31.80;26.50;;;;;;21253668;27;20052;-54
2022/08/10 00:15:41;;;;;;;10.77;3.20;;;31.80;26.70;;;;;;21254858;27;20463;-53
2022/08/10 00:25:43;;;;;;;9.82;3.83;;;31.60;26.80;;;;;;21252079;27;20047;-53
2022/08/10 00:35:44;;;;;;;7.57;2.20;;;31.40;26.70;;;;;;21251460;27;20047;-54
2022/08/10 00:45:46;;;;;;;6.85;2.00;;;31.30;25.00;;;;;;21250599;27;20066;-56
2022/08/10 00:55:48;;;;;;;4.22;2.22;;;31.20;23.60;;;;;;21230515;27;20134;-54
2022/08/10 01:06:21;;;;;;;5.30;2.08;;;31.00;23.20;;;;;;21249379;27;20055;-55
2022/08/10 01:16:35;;;;;;;7.57;2.08;;;30.90;23.70;;;;;;21206873;27;20181;-54
2022/08/10 01:26:58;;;;;;;7.40;2.53;;;30.90;24.30;;;;;;21248418;27;20134;-54
2022/08/10 01:37:05;;;;;;;4.20;2.67;;;30.90;24.70;;;;;;21248421;27;20050;-55
2022/08/10 01:57:41;;;;;;;6.25;2.40;;;30.80;27.10;;;;;;21247431;28;20062;-55
2022/08/10 02:07:48;;;;;;;4.13;2.33;;;30.70;28.10;;;;;;21257968;27;20104;-56
2022/08/10 02:18:00;;;;;;;5.10;2.33;;;30.70;29.10;;;;;;21263826;27;20058;-55
2022/08/10 02:28:08;;;;;;;6.97;2.40;;;30.60;29.60;;;;;;21262129;27;20126;-55
2022/08/10 02:38:16;;;;;;;6.45;2.45;;;30.60;30.40;;;;;;21261138;27;20415;-55
2022/08/10 02:48:23;;;;;;;6.60;2.40;;;30.40;32.10;;;;;;21260711;27;20075;-55
2022/08/10 02:58:47;;;;;;;6.35;2.75;;;30.20;33.20;;;;;;21260094;27;20057;-56
2022/08/10 03:08:50;;;;;;;6.07;2.55;;;30.00;35.10;;;;;;21241852;27;20051;-54
2022/08/10 03:18:53;;;;;;;6.93;2.40;;;29.90;36.00;;;;;;21257478;27;20089;-54
2022/08/10 03:28:56;;;;;;;4.18;2.55;;;29.80;37.50;;;;;;21257923;27;20075;-55
2022/08/10 03:38:59;;;;;;;6.35;2.40;;;29.60;39.00;;;;;;21256153;27;20138;-56
2022/08/10 03:49:04;;;;;;;6.43;2.53;;;29.40;39.40;;;;;;21255648;27;20055;-57
2022/08/10 03:59:09;;;;;;;7.55;2.55;;;29.40;40.10;;;;;;21254992;27;20057;-55
2022/08/10 04:09:10;;;;;;;5.55;3.10;;;29.20;41.20;;;;;;21253880;27;20100;-55
2022/08/10 04:19:13;;;;;;;5.47;3.00;;;29.10;41.10;;;;;;21253075;27;20267;-55
2022/08/10 04:29:15;;;;;;;5.53;2.60;;;29.00;41.70;;;;;;21252940;27;20411;-56
2022/08/10 04:39:17;;;;;;;11.45;3.30;;;28.80;41.70;;;;;;21221661;27;20051;-55
2022/08/10 04:49:19;;;;;;;8.50;3.10;;;28.70;41.70;;;;;;21165337;28;20142;-54
2022/08/10 04:59:20;;;;;;;8.18;2.75;;;28.60;41.60;;;;;;21164868;28;20090;-54
2022/08/10 05:09:22;;;;;;;11.02;4.05;;;28.60;41.50;;;;;;21164901;28;20460;-54
2022/08/10 05:19:23;;;;;;;7.55;3.17;;;28.60;41.10;;;;;;21163954;28;20073;-53
2022/08/10 05:29:25;;;;;;;6.10;2.63;;;28.50;41.00;;;;;;21164573;28;20047;-56
2022/08/10 05:39:27;;;;;;;6.55;2.55;;;28.40;41.20;;;;;;21162888;28;20540;-55
2022/08/10 05:49:29;;;;;;;8.60;3.17;;;28.30;41.40;;;;;;21162395;28;20048;-57
2022/08/10 05:59:35;;;;;;;8.50;3.03;;;28.30;41.40;;;;;;21163172;28;20079;-55
2022/08/10 06:09:38;;;;;;;6.20;3.38;;;28.30;41.40;;;;;;21144258;28;20054;-54
2022/08/10 06:19:41;;;;;;;5.43;2.70;;;28.20;41.30;;;;;;21160646;28;20059;-53
2022/08/10 06:29:45;;;;;;;9.63;2.90;;;28.20;40.90;;;;;;21162292;28;20048;-55
2022/08/10 06:39:47;;;;;;;7.55;2.90;;;28.30;40.50;;;;;;21159933;27;20135;-57
2022/08/10 06:49:53;;;;;;;7.18;2.95;;;28.40;40.40;;;;;;21165161;28;20047;-59
2022/08/10 06:59:58;;;;;;;6.55;3.17;;;28.40;40.10;;;;;;21173754;28;20097;-56
2022/08/10 07:10:00;;;;;;;7.05;2.75;;;28.50;40.20;;;;;;21173562;28;20129;-53
2022/08/10 07:20:02;;;;;;;4.18;2.40;;;28.50;39.70;;;;;;21164790;28;20055;-57
2022/08/10 07:30:05;;;;;;;7.57;2.50;;;28.90;38.40;;;;;;21174254;28;20480;-56
2022/08/10 07:40:12;;;;;;;4.85;2.80;;;29.40;37.80;;;;;;21209302;27;20184;-56
2022/08/10 07:50:17;;;;;;;7.03;2.65;;;29.80;36.40;;;;;;21255229;27;20050;-57
2022/08/10 08:00:20;;;;;;;3.20;2.20;;;30.00;35.80;;;;;;21254909;27;20108;-57
2022/08/10 08:10:26;;;;;;;4.95;2.47;;;30.30;34.80;;;;;;21253831;27;20047;-56
2022/08/10 08:20:29;;;;;;;7.13;2.35;;;30.70;34.10;;;;;;21253116;27;20107;-57
2022/08/10 08:30:32;;;;;;;7.15;2.22;;;30.80;33.50;;;;;;21252660;27;20089;-57
2022/08/10 08:40:37;;;;;;;7.55;3.05;;;31.10;33.10;;;;;;21251704;27;20415;-55
2022/08/10 08:50:59;;;;;;;3.80;2.10;;;31.30;32.80;;;;;;21250924;27;20057;-57
2022/08/10 09:01:29;;;;;;;10.85;2.67;;;31.60;31.80;;;;;;21233155;27;20100;-56
2022/08/10 09:11:52;;;;;;;6.25;2.38;;;31.90;31.90;;;;;;21251894;27;20047;-56
2022/08/10 09:22:15;;;;;;;9.70;2.30;;;31.80;31.80;;;;;;21249627;27;20043;-56
2022/08/10 09:32:43;;;;;;;8.43;2.72;;;31.70;30.80;;;;;;21252252;27;20068;-55
2022/08/10 09:43:08;;;;;;;6.95;2.30;;;32.00;30.10;;;;;;21248975;27;20058;-55
2022/08/10 09:53:20;;;;;;;5.80;2.25;;;32.10;30.00;;;;;;21249581;28;20120;-57
2022/08/10 10:03:32;;;;;;;7.35;2.60;;;32.00;29.60;;;;;;21247216;28;20055;-56
2022/08/10 10:13:56;;;;;;;6.40;2.63;;;32.10;29.70;;;;;;21247859;28;20126;-58
2022/08/10 10:24:14;;;;;;;5.38;2.60;;;32.40;28.20;;;;;;21250267;27;20352;-56
2022/08/10 10:34:25;;;;;;;6.82;2.40;;;32.60;28.00;;;;;;21244885;27;20043;-56
2022/08/10 10:44:36;;;;;;;5.82;2.42;;;32.80;27.70;;;;;;21262212;27;20495;-56
2022/08/10 10:54:52;;;;;;;6.65;3.13;;;32.90;28.00;;;;;;21262572;27;20059;-57
2022/08/10 11:05:12;;;;;;;8.18;2.40;;;33.00;28.70;;;;;;21260132;27;20055;-58
2022/08/10 11:15:23;;;;;;;6.70;2.67;;;32.80;29.00;;;;;;21260030;27;20126;-58
2022/08/10 11:25:30;;;;;;;8.27;2.92;;;32.80;28.70;;;;;;21239657;27;20043;-57
2022/08/10 11:36:07;;;;;;;9.07;2.72;;;33.10;27.60;;;;;;21257006;27;20505;-56
2022/08/10 11:46:26;;;;;;;8.57;2.88;;;33.50;26.10;;;;;;21257253;27;20051;-61
2022/08/10 11:56:44;;;;;;;8.35;2.75;;;33.70;26.30;;;;;;21256324;27;20051;-56
2022/08/10 12:06:46;;;;;;;7.55;3.10;;;34.10;25.60;;;;;;21255027;27;20047;-57
2022/08/10 12:16:59;;;;;;;10.38;2.80;;;33.90;25.50;;;;;;21253779;27;20456;-57
2022/08/10 12:27:13;;;;;;;6.35;2.45;;;34.10;24.60;;;;;;21252660;27;20449;-55
2022/08/10 12:37:34;;;;;;;7.82;2.90;;;34.10;24.80;;;;;;21251848;27;20051;-56
2022/08/10 12:47:48;;;;;;;7.97;2.50;;;34.60;24.60;;;;;;21252994;27;20051;-57
2022/08/10 12:57:56;;;;;;;8.75;2.78;;;34.70;24.50;;;;;;21250956;27;20092;-58
2022/08/10 13:18:30;;;;;;;7.85;3.13;;;34.60;25.20;;;;;;21249039;27;20483;-58
2022/08/10 13:28:54;;;;;;;5.60;2.90;;;34.60;25.50;;;;;;21248777;27;20165;-56
2022/08/10 13:38:58;;;;;;;7.70;2.20;;;35.10;24.40;;;;;;21248039;27;20051;-58
2022/08/10 13:49:04;;;;;;;9.60;2.47;;;35.20;24.40;;;;;;21248419;27;20047;-57
2022/08/10 13:59:06;;;;;;;9.95;3.13;;;35.50;24.00;;;;;;21252014;27;20066;-57
2022/08/10 14:09:11;;;;;;;7.80;3.08;;;35.50;23.90;;;;;;21264148;27;20058;-59
2022/08/10 14:19:21;;;;;;;8.85;3.17;;;35.80;23.70;;;;;;21262968;27;20403;-58
2022/08/10 14:29:25;;;;;;;11.07;2.92;;;35.90;23.40;;;;;;21262124;27;20047;-58
2022/08/10 14:40:09;;;;;;;10.98;3.20;;;35.80;23.10;;;;;;21261051;27;20058;-56
2022/08/10 14:50:16;;;;;;;14.20;3.00;;;35.80;23.40;;;;;;20916691;28;20415;-57
2022/08/10 15:00:18;;;;;;;11.20;2.47;;;36.00;22.80;;;;;;20915853;28;20543;-57
2022/08/10 15:10:21;;;;;;;10.60;3.50;;;36.00;22.80;;;;;;20914196;28;20053;-57
2022/08/10 15:20:26;;;;;;;13.60;3.83;;;36.10;22.40;;;;;;20984032;27;20382;-58
2022/08/10 15:30:34;;;;;;;11.90;4.28;;;36.40;22.00;;;;;;21240705;27;20134;-57
2022/08/10 15:40:46;;;;;;;14.00;3.97;;;36.40;21.90;;;;;;21256333;27;20145;-57
2022/08/10 15:50:57;;;;;;;14.55;3.90;;;36.60;21.90;;;;;;21255811;27;20050;-58
2022/08/10 16:01:05;;;;;;;16.40;5.28;;;36.50;22.10;;;;;;21254673;27;20058;-56
2022/08/10 16:11:14;;;;;;;13.95;3.60;;;36.60;22.30;;;;;;21253217;27;20055;-57
2022/08/10 16:21:20;;;;;;;19.40;4.22;;;36.50;22.20;;;;;;21235442;27;20043;-57
2022/08/10 16:31:24;;;;;;;15.10;3.85;;;36.60;22.30;;;;;;21253701;27;20440;-58
2022/08/10 16:41:28;;;;;;;15.82;4.22;;;36.60;22.80;;;;;;21252286;27;20541;-57
2022/08/10 16:51:31;;;;;;;20.00;4.45;;;36.60;22.60;;;;;;21250754;27;20491;-57
2022/08/10 17:01:38;;;;;;;18.50;3.88;;;36.60;22.20;;;;;;21250160;27;20538;-57
2022/08/10 17:11:43;;;;;;;18.17;9.93;;;36.60;22.40;;;;;;21231497;27;20039;-58
2022/08/10 17:21:51;;;;;;;14.40;3.78;;;36.50;22.50;;;;;;21248578;27;20195;-56
2022/08/10 17:31:57;;;;;;;17.80;4.03;;;36.30;22.80;;;;;;21247777;27;20069;-57
2022/08/10 17:42:00;;;;;;;14.85;4.32;;;36.30;22.70;;;;;;21228598;27;20134;-56
2022/08/10 17:52:07;;;;;;;16.00;4.28;;;36.20;22.50;;;;;;21246829;28;20043;-56
2022/08/10 18:02:12;;;;;;;15.57;4.20;;;36.10;22.50;;;;;;21246491;28;20043;-55
2022/08/10 18:12:22;;;;;;;17.48;4.03;;;36.10;22.70;;;;;;21247445;28;20047;-58
2022/08/10 18:22:25;;;;;;;16.03;4.60;;;36.00;22.80;;;;;;21244747;28;20126;-58
2022/08/10 18:32:33;;;;;;;16.30;4.60;;;35.80;22.80;;;;;;21245963;28;20330;-57
2022/08/10 18:42:43;;;;;;;16.27;6.82;;;35.80;22.90;;;;;;21226626;27;20051;-59
2022/08/10 18:52:48;;;;;;;15.02;4.68;;;35.60;23.10;;;;;;21259818;27;20047;-57
2022/08/10 19:03:18;;;;;;;16.52;4.93;;;35.50;23.10;;;;;;21259786;27;20082;-57
2022/08/10 19:13:54;;;;;;;18.23;5.35;;;35.40;23.10;;;;;;21260057;27;20051;-57
2022/08/10 19:24:28;;;;;;;14.20;5.45;;;35.30;23.40;;;;;;20912318;28;20128;-57
2022/08/10 19:34:38;;;;;;;17.67;6.43;;;35.10;23.60;;;;;;20912721;28;20051;-56
2022/08/10 19:44:59;;;;;;;17.65;6.28;;;34.90;24.10;;;;;;20912050;28;20053;-58
2022/08/10 19:55:04;;;;;;;16.67;5.22;;;34.80;24.30;;;;;;21030009;27;20075;-57
2022/08/10 20:05:29;;;;;;;17.90;4.68;;;34.60;24.30;;;;;;21255590;27;20047;-57
2022/08/10 20:15:53;;;;;;;13.07;4.10;;;34.50;24.60;;;;;;21254067;27;20054;-58
2022/08/10 20:26:15;;;;;;;17.73;4.47;;;34.30;24.90;;;;;;21252654;27;20051;-57
2022/08/10 20:36:28;;;;;;;16.33;4.15;;;34.10;25.30;;;;;;21252861;27;20069;-56
2022/08/10 20:46:34;;;;;;;13.95;4.15;;;34.00;25.50;;;;;;21251085;27;20462;-56
2022/08/10 20:56:51;;;;;;;12.57;3.88;;;33.70;25.80;;;;;;21250909;27;20054;-57
2022/08/10 21:07:05;;;;;;;12.10;3.50;;;33.60;25.90;;;;;;21249729;27;20548;-56
2022/08/10 21:17:24;;;;;;;11.38;2.80;;;33.30;25.80;;;;;;21249422;27;20176;-58
2022/08/10 22:51:18;;;;;;;5.78;2.80;;;31.70;27.90;;;;;;21261444;27;20047;-57
2022/08/10 23:01:41;;;;;;;8.27;2.65;;;31.50;29.00;;;;;;21260370;27;20073;-57
2022/08/10 23:11:43;;;;;;;4.03;2.50;;;31.40;30.30;;;;;;21259072;27;20047;-58
2022/08/10 23:22:03;;;;;;;5.97;2.60;;;31.20;32.10;;;;;;21258901;27;20043;-57
2022/08/10 23:32:07;;;;;;;5.78;2.55;;;31.20;32.70;;;;;;21257193;27;20138;-57
2022/08/10 23:42:16;;;;;;;6.57;2.38;;;31.00;33.00;;;;;;21257725;27;20225;-57
2022/08/10 23:52:24;;;;;;;4.07;2.47;;;30.90;33.20;;;;;;21256459;27;20050;-56
